Jonestown, Texas
Current Conditions -  °F | °C
As of 3:55 AM on Friday 19 Dec 2014 (Local Time) from KRYW Reporting Station
Heavy Rain Heavy Rain  
Wind Chill:   Ceiling: 300
Heat Index:   Visibility: 2mi
Dew Point:   Wind: 10mph
Humidity: 95%   Direction: 30°NNE
Pressure: 30.05"   Gusts: 17mph
Location:  30.4521°N, 97.9683°W
Report Text: KRYW 190955Z AUTO 03009G15KT 2SM +RA OVC003 09/08 A3005 RMK AO2 LTG DSNT S AND NW P0004 T00870080
Loading
Personal Weather Stations






























Interactive Weather Map New forecast layout! Learn more

10-Day Weather Forecast

Advertisements
Track Severe Weather on mobile